METAR AND TAF INFORMATION
METAR FOR SKMR
ADDS - METARS form results

(1331 UTC 21 November 2017)
Data provider http://aviationweather.gov/adds/metars/
 
METAR text: SKMR 211300Z 00000KT 9999 SCT020 BKN080 26/25 A2986
Conditions at: SKMR (MONTERIA/LOS GAR, CO) observed 1300 UTC 21 November 2017
Temperature: 26.0°C (79°F)
Dewpoint: 25.0°C (77°F) [RH = 94%]
Pressure (altimeter): 29.86 inches Hg (1011.3 mb)
Winds: calm
Visibility: 6 or more miles (10+ km)
Ceiling: 8000 feet AGL
Clouds: scattered clouds at 2000 feet AGL
broken clouds at 8000 feet AGL
Weather: no significant weather observed at this time

 AIRPORT MAP

 RUNWAY INFORMATION
Runway 14 Runway length 6285 ft Runway width 115 ft
Runway elevation 20 ft Runway displaced threshold 0 ft Runway heading 138
Runway 32 Runway length 6285 ft Runway width 115 ft
Runway elevation 18 ft Runway displaced threshold 0 ft Runway heading 318

 AIRPORT FREQUENCIES
Type INFO Name MONTERIA F Frequency 127.5 MHZ
Type RDO Name MONTERIA R Frequency 348.8 MHZ
Type TWR Name TWR Frequency 118.1 MHZ

 AIRPORT NEAR NAVIGATION AIDS
Type VOR-DME Name Monteria Frequency 114400 KHZ



v2.6.1